Bundyville, New York
Current Conditions -  °F | °C
As of 10:54 PM on Friday 24 Oct 2014 (Local Time) from KFZY Reporting Station
Clear Clear  
Wind Chill: 42°   Ceiling: Unl
Heat Index: 46°   Visibility: 10mi
Dew Point: 38°   Wind: 7mph
Humidity: 73%   Direction: 240°WSW
Pressure: 29.91"   Gusts: NA
Location:  43.4571°N, 76.4163°W
Report Text: KFZY 250254Z AUTO 24006KT 10SM CLR 08/03 A2991 RMK AO2 SLP129 T00780033 58001
Loading
Personal Weather Stations






























Interactive Weather Map
Tropical Storm Tracking
New forecast layout! Learn more

10-Day Weather Forecast

Advertisements
Track Severe Weather on mobile